Time;durP1;ratioP1;P1;durP2;ratioP2;P2;SDS_P1;SDS_P2;PMS_P1;PMS_P2;Temp;Humidity;BMP_temperature;BMP_pressure;BME280_temperature;BME280_humidity;BME280_pressure;Samples;Min_cycle;Max_cycle;Signal;HPM_P1;HPM_P2
2023/09/04 00:00:20;;;;;;;2.47;1.40;;;;;;;;;;4969283;28;20146;-64
2023/09/04 00:02:49;;;;;;;6.07;1.55;;;;;;;;;;4965588;28;20086;-63
2023/09/04 00:05:19;;;;;;;4.63;1.77;;;;;;;;;;4968182;28;20540;-68
2023/09/04 00:07:47;;;;;;;3.58;1.70;;;;;;;;;;4964353;28;20047;-63
2023/09/04 00:10:16;;;;;;;3.38;1.38;;;;;;;;;;4964061;28;20137;-63
2023/09/04 00:12:44;;;;;;;3.42;1.40;;;;;;;;;;4970385;28;20081;-62
2023/09/04 00:15:13;;;;;;;4.88;1.27;;;;;;;;;;4968941;28;20050;-62
2023/09/04 00:17:41;;;;;;;2.85;1.40;;;;;;;;;;4969250;28;20819;-65
2023/09/04 00:20:11;;;;;;;1.70;1.38;;;;;;;;;;4965388;28;20066;-64
2023/09/04 00:22:40;;;;;;;2.22;1.50;;;;;;;;;;4969835;28;20097;-64
2023/09/04 00:25:09;;;;;;;2.58;1.67;;;;;;;;;;4964999;28;20194;-63
2023/09/04 00:27:37;;;;;;;3.30;1.27;;;;;;;;;;4968132;28;20082;-64
2023/09/04 00:30:06;;;;;;;2.40;1.40;;;;;;;;;;4965001;28;20050;-63
2023/09/04 00:32:35;;;;;;;3.60;1.10;;;;;;;;;;4963284;28;20256;-66
2023/09/04 00:35:03;;;;;;;3.25;1.45;;;;;;;;;;4968203;28;20043;-64
2023/09/04 00:37:31;;;;;;;6.03;1.60;;;;;;;;;;4969529;28;20047;-66
2023/09/04 00:40:01;;;;;;;2.13;1.25;;;;;;;;;;4969896;28;20584;-69
2023/09/04 00:42:30;;;;;;;2.92;1.58;;;;;;;;;;4963821;28;20119;-62
2023/09/04 00:44:58;;;;;;;2.28;1.60;;;;;;;;;;4966905;28;20097;-71
2023/09/04 00:47:26;;;;;;;2.65;1.25;;;;;;;;;;4968409;28;20058;-64
2023/09/04 00:49:55;;;;;;;3.58;1.60;;;;;;;;;;4969314;28;20055;-64
2023/09/04 00:52:24;;;;;;;3.22;1.77;;;;;;;;;;4967938;28;20066;-63
2023/09/04 00:54:53;;;;;;;3.35;1.45;;;;;;;;;;4966767;28;20137;-66
2023/09/04 00:57:26;;;;;;;4.75;1.65;;;;;;;;;;4964634;28;20051;-72
2023/09/04 00:59:55;;;;;;;2.97;1.45;;;;;;;;;;4964533;28;20098;-63
2023/09/04 01:02:23;;;;;;;2.78;1.50;;;;;;;;;;4961416;28;20462;-64
2023/09/04 01:04:51;;;;;;;3.45;1.50;;;;;;;;;;4963302;28;20050;-69
2023/09/04 01:07:20;;;;;;;2.47;1.38;;;;;;;;;;4962849;28;20137;-62
2023/09/04 01:09:48;;;;;;;1.52;1.42;;;;;;;;;;4966988;28;20086;-64
2023/09/04 01:12:18;;;;;;;2.40;1.40;;;;;;;;;;4967190;28;20121;-65
2023/09/04 01:14:48;;;;;;;2.58;1.48;;;;;;;;;;4965001;28;20129;-65
2023/09/04 01:17:17;;;;;;;3.90;1.63;;;;;;;;;;4966814;28;20078;-63
2023/09/04 01:19:46;;;;;;;4.20;1.58;;;;;;;;;;4966358;28;20074;-64
2023/09/04 01:22:15;;;;;;;1.58;1.33;;;;;;;;;;4963771;28;20078;-73
2023/09/04 01:24:46;;;;;;;2.55;1.40;;;;;;;;;;4962510;28;20042;-63
2023/09/04 01:27:17;;;;;;;2.25;1.60;;;;;;;;;;4969691;28;20129;-65
2023/09/04 01:29:50;;;;;;;4.38;1.50;;;;;;;;;;4966040;28;20046;-65
2023/09/04 01:32:21;;;;;;;2.13;1.40;;;;;;;;;;4966013;28;20113;-63
2023/09/04 01:34:51;;;;;;;2.60;1.45;;;;;;;;;;4965763;28;20054;-67
2023/09/04 01:37:21;;;;;;;2.63;1.67;;;;;;;;;;4962717;28;20512;-67
2023/09/04 01:39:50;;;;;;;4.70;1.70;;;;;;;;;;4969570;28;20133;-62
2023/09/04 01:42:18;;;;;;;2.78;1.48;;;;;;;;;;4967295;28;20086;-65
2023/09/04 01:44:47;;;;;;;3.33;1.55;;;;;;;;;;4965403;28;20102;-65
2023/09/04 01:47:15;;;;;;;2.88;1.50;;;;;;;;;;4966679;28;20051;-64
2023/09/04 01:49:43;;;;;;;2.47;1.40;;;;;;;;;;4965796;28;20463;-64
2023/09/04 01:52:12;;;;;;;4.72;1.60;;;;;;;;;;4965106;28;20375;-63
2023/09/04 01:54:41;;;;;;;3.20;1.52;;;;;;;;;;4966114;28;20046;-63
2023/09/04 01:57:10;;;;;;;2.58;1.75;;;;;;;;;;4965696;28;20042;-64
2023/09/04 01:59:38;;;;;;;5.05;1.70;;;;;;;;;;4963015;28;20480;-62
2023/09/04 02:02:06;;;;;;;3.53;1.70;;;;;;;;;;4962903;28;20136;-66
2023/09/04 02:04:35;;;;;;;3.63;1.95;;;;;;;;;;4967163;28;20077;-62
2023/09/04 02:07:03;;;;;;;3.97;1.80;;;;;;;;;;4961758;28;20062;-63
2023/09/04 02:09:32;;;;;;;2.08;1.55;;;;;;;;;;4961581;28;20057;-63
2023/09/04 02:12:01;;;;;;;2.53;1.50;;;;;;;;;;4966609;28;20047;-68
2023/09/04 02:14:31;;;;;;;2.75;1.77;;;;;;;;;;4967697;28;20054;-64
2023/09/04 02:16:59;;;;;;;4.38;1.85;;;;;;;;;;4964723;28;20090;-63
2023/09/04 02:19:27;;;;;;;2.60;1.70;;;;;;;;;;4966382;28;20576;-63
2023/09/04 02:21:56;;;;;;;3.17;1.80;;;;;;;;;;4946638;28;20233;-62
2023/09/04 02:24:24;;;;;;;5.47;1.90;;;;;;;;;;4941098;28;20051;-64
2023/09/04 02:26:52;;;;;;;2.95;1.50;;;;;;;;;;4945908;28;20145;-62
2023/09/04 02:29:23;;;;;;;2.30;1.65;;;;;;;;;;4943731;28;20051;-63
2023/09/04 02:31:52;;;;;;;4.03;1.60;;;;;;;;;;4941616;28;20067;-62
2023/09/04 02:34:20;;;;;;;4.07;2.13;;;;;;;;;;4943485;28;20289;-62
2023/09/04 02:36:49;;;;;;;3.55;2.10;;;;;;;;;;4945591;28;20074;-63
2023/09/04 02:39:17;;;;;;;3.67;1.83;;;;;;;;;;4944231;28;20075;-64
2023/09/04 02:41:45;;;;;;;4.65;2.08;;;;;;;;;;4963513;28;20125;-66
2023/09/04 02:44:14;;;;;;;2.60;1.90;;;;;;;;;;4962066;28;20058;-65
2023/09/04 02:46:43;;;;;;;4.53;1.98;;;;;;;;;;4964452;28;20105;-70
2023/09/04 02:49:12;;;;;;;3.40;1.85;;;;;;;;;;4963674;28;20106;-72
2023/09/04 02:51:40;;;;;;;3.40;2.10;;;;;;;;;;4962371;28;20086;-65
2023/09/04 02:54:09;;;;;;;3.10;1.90;;;;;;;;;;4966044;28;20051;-64
2023/09/04 02:56:37;;;;;;;4.80;2.05;;;;;;;;;;4964921;28;20070;-65
2023/09/04 02:59:05;;;;;;;3.30;2.05;;;;;;;;;;4963945;28;20536;-62
2023/09/04 03:01:34;;;;;;;2.83;2.03;;;;;;;;;;4961981;28;20128;-62
2023/09/04 03:04:05;;;;;;;6.60;1.95;;;;;;;;;;4964610;28;20051;-67
2023/09/04 03:06:33;;;;;;;6.13;1.98;;;;;;;;;;4962772;28;20074;-63
2023/09/04 03:09:02;;;;;;;9.38;2.17;;;;;;;;;;4965721;28;20058;-65
2023/09/04 03:11:30;;;;;;;3.63;2.00;;;;;;;;;;4962519;28;20070;-67
2023/09/04 03:13:59;;;;;;;4.07;2.13;;;;;;;;;;4960657;28;20054;-63
2023/09/04 03:16:28;;;;;;;3.42;2.00;;;;;;;;;;4958249;28;20105;-65
2023/09/04 03:18:56;;;;;;;3.25;2.25;;;;;;;;;;4959944;28;20144;-64
2023/09/04 03:21:26;;;;;;;2.50;1.85;;;;;;;;;;4962356;28;20051;-62
2023/09/04 03:23:54;;;;;;;2.45;1.80;;;;;;;;;;4965137;28;20471;-64
2023/09/04 03:26:23;;;;;;;4.13;2.33;;;;;;;;;;4963486;28;20078;-66
2023/09/04 03:28:51;;;;;;;3.08;2.10;;;;;;;;;;4960370;28;20463;-66
2023/09/04 03:31:20;;;;;;;4.30;2.40;;;;;;;;;;4957469;28;20082;-66
2023/09/04 03:33:48;;;;;;;4.07;2.67;;;;;;;;;;4962574;28;20126;-65
2023/09/04 03:36:16;;;;;;;4.88;2.50;;;;;;;;;;4962842;28;20105;-69
2023/09/04 03:38:46;;;;;;;4.47;2.53;;;;;;;;;;4965770;28;20466;-63
2023/09/04 03:41:14;;;;;;;5.00;2.55;;;;;;;;;;4963308;28;20495;-62
2023/09/04 03:43:43;;;;;;;4.03;2.22;;;;;;;;;;4963264;28;20499;-62
2023/09/04 03:46:14;;;;;;;3.70;2.70;;;;;;;;;;4961628;28;20061;-64
2023/09/04 03:48:43;;;;;;;4.15;2.50;;;;;;;;;;4959799;28;20043;-66
2023/09/04 03:51:11;;;;;;;8.38;2.38;;;;;;;;;;4964289;28;20070;-64
2023/09/04 03:53:39;;;;;;;3.65;2.28;;;;;;;;;;4963462;28;20129;-63
2023/09/04 03:56:09;;;;;;;4.10;2.47;;;;;;;;;;4963070;28;20043;-67
2023/09/04 03:58:38;;;;;;;4.00;2.50;;;;;;;;;;4964764;28;20066;-71
2023/09/04 04:01:06;;;;;;;4.70;2.20;;;;;;;;;;4962176;28;20551;-72
2023/09/04 04:03:34;;;;;;;3.78;2.70;;;;;;;;;;4962498;28;20130;-65
2023/09/04 04:06:09;;;;;;;4.35;2.75;;;;;;;;;;4959172;28;20061;-66
2023/09/04 04:08:37;;;;;;;4.10;2.75;;;;;;;;;;4963428;28;20070;-63
2023/09/04 04:11:06;;;;;;;4.32;2.40;;;;;;;;;;4962975;28;20038;-62
2023/09/04 04:13:35;;;;;;;4.70;2.72;;;;;;;;;;4965049;28;20082;-68
2023/09/04 04:16:04;;;;;;;4.15;2.75;;;;;;;;;;4962859;28;20050;-67
2023/09/04 04:18:32;;;;;;;3.60;2.08;;;;;;;;;;4962242;28;20515;-64
2023/09/04 04:21:01;;;;;;;5.80;3.25;;;;;;;;;;4961095;28;20463;-62
2023/09/04 04:23:29;;;;;;;4.32;2.78;;;;;;;;;;4959939;28;20039;-64
2023/09/04 04:25:58;;;;;;;4.85;2.80;;;;;;;;;;4961612;28;20126;-66
2023/09/04 04:28:26;;;;;;;10.57;3.03;;;;;;;;;;4965234;28;20079;-63
2023/09/04 04:30:57;;;;;;;4.00;2.67;;;;;;;;;;4962093;28;20097;-62
2023/09/04 04:33:25;;;;;;;4.43;2.55;;;;;;;;;;4961048;28;20050;-62
2023/09/04 04:35:54;;;;;;;4.25;2.85;;;;;;;;;;4960668;28;20147;-65
2023/09/04 04:38:22;;;;;;;4.43;2.72;;;;;;;;;;4966103;28;20556;-69
2023/09/04 04:40:51;;;;;;;4.57;2.60;;;;;;;;;;4964503;28;20135;-62
2023/09/04 04:43:19;;;;;;;4.45;2.65;;;;;;;;;;4968593;28;20436;-63
2023/09/04 04:45:48;;;;;;;4.30;2.75;;;;;;;;;;4964547;28;20082;-62
2023/09/04 04:48:19;;;;;;;5.15;2.90;;;;;;;;;;4966267;28;20046;-65
2023/09/04 04:50:47;;;;;;;4.05;2.50;;;;;;;;;;4960953;28;20073;-65
2023/09/04 04:53:15;;;;;;;3.25;2.30;;;;;;;;;;4966793;28;20050;-64
2023/09/04 04:55:44;;;;;;;5.40;3.42;;;;;;;;;;4966918;28;20117;-63
2023/09/04 04:58:12;;;;;;;4.43;3.08;;;;;;;;;;4964908;28;20050;-63
2023/09/04 05:00:40;;;;;;;5.70;3.30;;;;;;;;;;4963801;28;20061;-62
2023/09/04 05:03:09;;;;;;;5.50;2.97;;;;;;;;;;4963892;28;20141;-62
2023/09/04 05:05:39;;;;;;;5.43;3.10;;;;;;;;;;4960865;28;20054;-64
2023/09/04 05:08:07;;;;;;;5.65;3.22;;;;;;;;;;4966471;28;20092;-66
2023/09/04 05:10:35;;;;;;;4.85;2.80;;;;;;;;;;4963938;28;20458;-66
2023/09/04 05:13:04;;;;;;;4.43;2.58;;;;;;;;;;4965012;28;20051;-69
2023/09/04 05:15:32;;;;;;;8.93;3.28;;;;;;;;;;4961623;28;21304;-63
2023/09/04 05:18:01;;;;;;;4.15;2.80;;;;;;;;;;4964142;28;20404;-61
2023/09/04 05:20:29;;;;;;;5.55;3.00;;;;;;;;;;4963320;28;20042;-65
2023/09/04 05:22:59;;;;;;;6.70;2.95;;;;;;;;;;4960068;28;20269;-63
2023/09/04 05:25:30;;;;;;;5.07;3.40;;;;;;;;;;4965269;28;20519;-66
2023/09/04 05:27:58;;;;;;;4.88;3.08;;;;;;;;;;4966306;28;20082;-61
2023/09/04 05:30:26;;;;;;;6.25;3.58;;;;;;;;;;4965226;28;20079;-62
2023/09/04 05:32:55;;;;;;;6.88;3.65;;;;;;;;;;4963141;28;20098;-62
2023/09/04 05:35:23;;;;;;;4.93;2.85;;;;;;;;;;4963663;28;20050;-64
2023/09/04 05:37:52;;;;;;;5.53;3.15;;;;;;;;;;4966699;28;20408;-65
2023/09/04 05:40:21;;;;;;;5.38;2.85;;;;;;;;;;4965119;28;20074;-63
2023/09/04 05:42:50;;;;;;;4.65;3.22;;;;;;;;;;4966126;28;20093;-62
2023/09/04 05:45:19;;;;;;;6.10;3.15;;;;;;;;;;4965285;28;20086;-63
2023/09/04 05:47:48;;;;;;;4.45;2.85;;;;;;;;;;4962051;28;20070;-66
2023/09/04 05:50:17;;;;;;;6.28;3.00;;;;;;;;;;4963375;28;20038;-66
2023/09/04 05:52:45;;;;;;;5.40;3.20;;;;;;;;;;4965302;28;20051;-62
2023/09/04 05:55:14;;;;;;;6.68;3.70;;;;;;;;;;4965930;28;20137;-62
2023/09/04 05:57:43;;;;;;;8.65;3.20;;;;;;;;;;4962397;28;20474;-63
2023/09/04 06:00:12;;;;;;;4.90;3.22;;;;;;;;;;4962401;28;20105;-63
2023/09/04 06:02:40;;;;;;;6.78;3.45;;;;;;;;;;4964615;28;20138;-63
2023/09/04 06:05:09;;;;;;;5.50;2.60;;;;;;;;;;4966134;28;20054;-63
2023/09/04 06:07:38;;;;;;;4.43;2.80;;;;;;;;;;4966051;28;20117;-63
2023/09/04 06:10:06;;;;;;;5.10;2.85;;;;;;;;;;4964208;28;20374;-64
2023/09/04 06:12:35;;;;;;;5.40;3.33;;;;;;;;;;4965050;28;20054;-72
2023/09/04 06:15:06;;;;;;;5.47;3.78;;;;;;;;;;4966461;28;20125;-64
2023/09/04 06:17:35;;;;;;;6.05;3.35;;;;;;;;;;4963545;28;20051;-63
2023/09/04 06:20:04;;;;;;;5.25;3.33;;;;;;;;;;4966480;28;20042;-63
2023/09/04 06:22:32;;;;;;;7.80;3.92;;;;;;;;;;4962862;28;20066;-66
2023/09/04 06:25:01;;;;;;;6.10;3.30;;;;;;;;;;4969375;28;20102;-70
2023/09/04 06:27:29;;;;;;;7.75;4.70;;;;;;;;;;4964482;28;20047;-64
2023/09/04 06:29:57;;;;;;;4.85;3.20;;;;;;;;;;4962168;28;20496;-62
2023/09/04 06:32:27;;;;;;;9.13;4.03;;;;;;;;;;4959410;28;20054;-62
2023/09/04 06:34:56;;;;;;;7.15;3.83;;;;;;;;;;4958798;28;20138;-66
2023/09/04 06:37:25;;;;;;;8.20;4.38;;;;;;;;;;4966298;28;20074;-63
2023/09/04 06:39:53;;;;;;;8.85;4.30;;;;;;;;;;4966939;28;20098;-59
2023/09/04 06:42:21;;;;;;;7.82;4.88;;;;;;;;;;4967546;28;20046;-64
2023/09/04 06:44:50;;;;;;;9.02;5.00;;;;;;;;;;4964548;28;20078;-66
2023/09/04 06:47:18;;;;;;;7.07;3.65;;;;;;;;;;4962334;28;20055;-67
2023/09/04 06:49:48;;;;;;;8.45;4.63;;;;;;;;;;4966522;28;20078;-68
2023/09/04 06:52:16;;;;;;;8.02;5.03;;;;;;;;;;4959587;28;20089;-66
2023/09/04 06:54:45;;;;;;;5.15;3.47;;;;;;;;;;4959583;28;20039;-62
2023/09/04 06:57:13;;;;;;;6.13;3.67;;;;;;;;;;4964868;28;20673;-64
2023/09/04 06:59:42;;;;;;;6.57;3.92;;;;;;;;;;4961182;28;20065;-64
2023/09/04 07:02:10;;;;;;;9.38;4.20;;;;;;;;;;4959366;28;20110;-62
2023/09/04 07:04:39;;;;;;;7.18;4.25;;;;;;;;;;4961333;28;20047;-70
2023/09/04 07:07:10;;;;;;;11.63;4.35;;;;;;;;;;4966545;28;20145;-63
2023/09/04 07:09:38;;;;;;;10.95;4.63;;;;;;;;;;4957774;28;20063;-62
2023/09/04 07:12:07;;;;;;;12.85;4.15;;;;;;;;;;4963032;28;20106;-66
2023/09/04 07:14:35;;;;;;;8.18;3.92;;;;;;;;;;4962380;28;20610;-62
2023/09/04 07:17:04;;;;;;;7.25;4.00;;;;;;;;;;4963227;28;20239;-63
2023/09/04 07:19:37;;;;;;;5.68;3.88;;;;;;;;;;4960398;28;20707;-68
2023/09/04 07:22:05;;;;;;;8.23;3.88;;;;;;;;;;4964736;28;20078;-63
2023/09/04 07:24:35;;;;;;;6.85;3.97;;;;;;;;;;4963549;28;20129;-63
2023/09/04 07:27:04;;;;;;;7.78;4.10;;;;;;;;;;4962153;28;20059;-64
2023/09/04 07:29:32;;;;;;;8.98;3.72;;;;;;;;;;4961877;28;20047;-65
2023/09/04 07:32:01;;;;;;;7.90;4.43;;;;;;;;;;4963141;28;20046;-64
2023/09/04 07:34:29;;;;;;;8.35;4.28;;;;;;;;;;4964648;28;20114;-63
2023/09/04 07:36:58;;;;;;;6.88;4.03;;;;;;;;;;4964952;28;20480;-66
2023/09/04 07:39:26;;;;;;;7.35;4.80;;;;;;;;;;4961394;28;20054;-65
2023/09/04 07:41:57;;;;;;;7.75;3.78;;;;;;;;;;4964266;28;20476;-65
2023/09/04 07:44:25;;;;;;;10.77;3.90;;;;;;;;;;4964143;28;20076;-62
2023/09/04 07:46:54;;;;;;;9.55;4.57;;;;;;;;;;4964190;28;20106;-63
2023/09/04 07:49:22;;;;;;;7.90;4.72;;;;;;;;;;4963698;28;20117;-70
2023/09/04 07:51:53;;;;;;;5.60;3.30;;;;;;;;;;4964696;28;20077;-62
2023/09/04 07:54:22;;;;;;;4.25;2.72;;;;;;;;;;4960178;28;20047;-69
2023/09/04 07:56:50;;;;;;;5.88;3.75;;;;;;;;;;4960378;28;20050;-64
2023/09/04 07:59:20;;;;;;;4.70;3.40;;;;;;;;;;4963048;28;20050;-64
2023/09/04 08:01:48;;;;;;;6.20;3.33;;;;;;;;;;4962160;28;20529;-63
2023/09/04 08:04:17;;;;;;;6.88;4.20;;;;;;;;;;4961764;28;20058;-66
2023/09/04 08:06:45;;;;;;;6.30;4.00;;;;;;;;;;4960306;28;20043;-66
2023/09/04 08:09:14;;;;;;;5.97;3.60;;;;;;;;;;4965048;28;20118;-63
2023/09/04 08:11:42;;;;;;;6.13;4.07;;;;;;;;;;4965178;28;21802;-63
2023/09/04 08:14:11;;;;;;;3.65;2.53;;;;;;;;;;4967180;28;20043;-63
2023/09/04 08:16:41;;;;;;;7.13;3.55;;;;;;;;;;4962504;28;20046;-63
2023/09/04 08:19:09;;;;;;;5.82;3.33;;;;;;;;;;4967281;28;20043;-65
2023/09/04 08:21:38;;;;;;;4.80;3.15;;;;;;;;;;4968841;28;20520;-63
2023/09/04 08:24:06;;;;;;;7.47;3.72;;;;;;;;;;4962301;28;20051;-63
2023/09/04 08:26:35;;;;;;;5.78;3.72;;;;;;;;;;4966071;28;20109;-65
2023/09/04 08:29:03;;;;;;;5.22;3.70;;;;;;;;;;4965989;28;20058;-65
2023/09/04 08:31:32;;;;;;;4.78;3.03;;;;;;;;;;4961725;28;20409;-65
2023/09/04 08:34:01;;;;;;;6.28;3.35;;;;;;;;;;4967406;28;20042;-63
2023/09/04 08:36:30;;;;;;;3.90;2.80;;;;;;;;;;4963971;28;20058;-64
2023/09/04 08:38:59;;;;;;;6.72;3.20;;;;;;;;;;4965189;28;20059;-68
2023/09/04 08:41:28;;;;;;;7.68;3.45;;;;;;;;;;4965235;28;20039;-69
2023/09/04 08:43:58;;;;;;;5.03;3.33;;;;;;;;;;4967696;28;20038;-66
2023/09/04 08:46:28;;;;;;;6.85;3.03;;;;;;;;;;4965525;28;20096;-64
2023/09/04 08:48:58;;;;;;;4.45;2.70;;;;;;;;;;4966387;28;20548;-62
2023/09/04 08:51:47;;;;;;;4.80;2.70;;;;;;;;;;4966131;28;20058;-63
2023/09/04 08:54:15;;;;;;;3.40;2.50;;;;;;;;;;4962409;28;20047;-68
2023/09/04 08:56:44;;;;;;;3.25;2.50;;;;;;;;;;4964051;28;20101;-63
2023/09/04 08:59:12;;;;;;;6.32;3.35;;;;;;;;;;4965715;28;20050;-63
2023/09/04 09:01:41;;;;;;;4.75;3.15;;;;;;;;;;4962392;28;20047;-63
2023/09/04 09:04:11;;;;;;;9.35;3.20;;;;;;;;;;4963006;28;20105;-63
2023/09/04 09:06:39;;;;;;;4.35;2.78;;;;;;;;;;4963733;28;20053;-65
2023/09/04 09:09:10;;;;;;;4.03;2.67;;;;;;;;;;4962459;28;20496;-64
2023/09/04 09:11:39;;;;;;;5.93;3.17;;;;;;;;;;4964153;28;20055;-64
2023/09/04 09:14:07;;;;;;;4.32;2.65;;;;;;;;;;4967941;28;20054;-64
2023/09/04 09:16:36;;;;;;;4.70;3.00;;;;;;;;;;4960681;28;20051;-64
2023/09/04 09:19:04;;;;;;;3.53;2.47;;;;;;;;;;4966366;28;20137;-66
2023/09/04 09:21:33;;;;;;;2.88;2.10;;;;;;;;;;4964507;28;20062;-63
2023/09/04 09:24:10;;;;;;;2.80;1.95;;;;;;;;;;4966213;28;20498;-62
2023/09/04 09:26:39;;;;;;;4.18;2.40;;;;;;;;;;4964675;28;20047;-63
2023/09/04 09:29:10;;;;;;;4.18;1.90;;;;;;;;;;4961965;28;20035;-63
2023/09/04 09:31:38;;;;;;;7.05;1.90;;;;;;;;;;4963042;28;20153;-69
2023/09/04 09:34:07;;;;;;;3.50;2.13;;;;;;;;;;4968376;28;20113;-64
2023/09/04 09:36:36;;;;;;;3.97;2.13;;;;;;;;;;4967838;28;20049;-64
2023/09/04 09:39:05;;;;;;;5.75;1.80;;;;;;;;;;4960311;28;20054;-64
2023/09/04 09:41:35;;;;;;;3.33;1.85;;;;;;;;;;4962411;28;20674;-63
2023/09/04 09:44:04;;;;;;;2.60;2.03;;;;;;;;;;4966053;28;20094;-64
2023/09/04 09:46:34;;;;;;;2.72;2.13;;;;;;;;;;4964185;28;20053;-63
2023/09/04 09:49:02;;;;;;;2.83;2.00;;;;;;;;;;4965924;28;20054;-62
2023/09/04 09:51:33;;;;;;;3.92;1.98;;;;;;;;;;4959983;28;20050;-73
2023/09/04 09:54:01;;;;;;;2.72;2.00;;;;;;;;;;4965287;28;20057;-64
2023/09/04 09:56:30;;;;;;;3.17;1.92;;;;;;;;;;4962895;28;20054;-67
2023/09/04 09:59:00;;;;;;;3.70;2.00;;;;;;;;;;4960042;28;20046;-65
2023/09/04 10:01:31;;;;;;;2.45;1.80;;;;;;;;;;4958875;28;20051;-64
2023/09/04 10:04:01;;;;;;;1.98;1.42;;;;;;;;;;4961235;28;20114;-63
2023/09/04 10:06:34;;;;;;;1.58;1.35;;;;;;;;;;4962810;28;20109;-65
2023/09/04 10:09:03;;;;;;;2.38;1.73;;;;;;;;;;4958758;28;20129;-65
2023/09/04 10:11:34;;;;;;;2.00;1.77;;;;;;;;;;4959914;28;20051;-64
2023/09/04 10:14:05;;;;;;;4.10;1.67;;;;;;;;;;4964568;28;20051;-65
2023/09/04 10:16:34;;;;;;;3.17;1.80;;;;;;;;;;4961891;28;20047;-67
2023/09/04 10:19:03;;;;;;;2.92;1.40;;;;;;;;;;4962265;28;20043;-63
2023/09/04 10:21:34;;;;;;;3.33;1.55;;;;;;;;;;4958639;28;20042;-66
2023/09/04 10:24:03;;;;;;;4.32;1.70;;;;;;;;;;4959671;28;20046;-65
2023/09/04 10:26:36;;;;;;;3.63;2.03;;;;;;;;;;4963925;28;20051;-64
2023/09/04 10:29:09;;;;;;;3.30;1.95;;;;;;;;;;4964482;28;20055;-68
2023/09/04 10:31:39;;;;;;;2.97;2.03;;;;;;;;;;4959984;28;20051;-65
2023/09/04 10:34:08;;;;;;;2.85;2.10;;;;;;;;;;4960199;28;20368;-66
2023/09/04 10:36:38;;;;;;;3.10;2.00;;;;;;;;;;4957146;28;20055;-63
2023/09/04 10:39:08;;;;;;;3.38;2.00;;;;;;;;;;4961360;28;20054;-67
2023/09/04 10:41:37;;;;;;;4.35;1.90;;;;;;;;;;4961695;28;20050;-67
2023/09/04 10:44:08;;;;;;;2.55;2.10;;;;;;;;;;4959397;28;20481;-63
2023/09/04 10:46:40;;;;;;;3.53;2.10;;;;;;;;;;4960135;28;20970;-66
2023/09/04 10:49:10;;;;;;;2.63;1.88;;;;;;;;;;4961809;28;20181;-64
2023/09/04 10:51:39;;;;;;;3.53;1.77;;;;;;;;;;4959914;28;20594;-65
2023/09/04 10:54:22;;;;;;;2.92;1.98;;;;;;;;;;4960949;28;20054;-63
2023/09/04 10:56:53;;;;;;;8.93;2.20;;;;;;;;;;4958232;28;20088;-62
2023/09/04 10:59:23;;;;;;;2.78;1.95;;;;;;;;;;4960275;28;20043;-68
2023/09/04 11:01:52;;;;;;;4.00;2.30;;;;;;;;;;4957148;28;20074;-66
2023/09/04 11:04:33;;;;;;;2.90;1.90;;;;;;;;;;4961492;28;20069;-70
2023/09/04 11:07:28;;;;;;;2.33;1.80;;;;;;;;;;4957908;28;20507;-64
2023/09/04 11:10:02;;;;;;;2.38;1.90;;;;;;;;;;4940271;28;20051;-64
2023/09/04 11:12:33;;;;;;;2.73;1.90;;;;;;;;;;4965759;28;20154;-65
2023/09/04 11:15:11;;;;;;;2.72;1.90;;;;;;;;;;4964623;28;20046;-65
2023/09/04 11:17:40;;;;;;;3.90;1.92;;;;;;;;;;4964217;28;20053;-64
2023/09/04 11:20:12;;;;;;;2.30;1.70;;;;;;;;;;4961974;28;20051;-63
2023/09/04 11:22:40;;;;;;;1.92;1.70;;;;;;;;;;4966317;28;20051;-63
2023/09/04 11:25:09;;;;;;;3.13;1.67;;;;;;;;;;4965050;28;20085;-64
2023/09/04 11:27:37;;;;;;;2.83;1.80;;;;;;;;;;4964939;28;20065;-67
2023/09/04 11:30:08;;;;;;;2.75;1.73;;;;;;;;;;4961793;28;20057;-62
2023/09/04 11:32:37;;;;;;;2.67;1.70;;;;;;;;;;4958578;28;20050;-65
2023/09/04 11:35:08;;;;;;;1.98;1.52;;;;;;;;;;4963771;28;20047;-66
2023/09/04 11:37:37;;;;;;;2.80;2.08;;;;;;;;;;4964371;28;20484;-65
2023/09/04 11:40:06;;;;;;;2.88;1.75;;;;;;;;;;4958906;28;20424;-64
2023/09/04 11:42:35;;;;;;;2.08;1.65;;;;;;;;;;4959108;28;20055;-63
2023/09/04 11:45:03;;;;;;;2.83;1.60;;;;;;;;;;4958785;28;20058;-64
2023/09/04 11:47:33;;;;;;;1.90;1.48;;;;;;;;;;4963246;28;20061;-65
2023/09/04 11:50:02;;;;;;;2.78;1.70;;;;;;;;;;4961985;28;20460;-65
2023/09/04 11:52:32;;;;;;;3.00;1.90;;;;;;;;;;4961656;28;20043;-65
2023/09/04 11:55:03;;;;;;;2.22;1.77;;;;;;;;;;4966438;28;20054;-68
2023/09/04 11:57:31;;;;;;;3.45;1.83;;;;;;;;;;4960261;28;20485;-66
2023/09/04 12:00:00;;;;;;;3.22;2.08;;;;;;;;;;4960349;28;20082;-66
2023/09/04 12:02:28;;;;;;;3.63;1.90;;;;;;;;;;4958946;28;20070;-65
2023/09/04 12:05:00;;;;;;;3.90;2.33;;;;;;;;;;4964094;28;20054;-67
2023/09/04 12:07:29;;;;;;;4.20;2.03;;;;;;;;;;4962753;28;20058;-64
2023/09/04 12:09:59;;;;;;;3.10;2.20;;;;;;;;;;4964239;28;20055;-65
2023/09/04 12:12:27;;;;;;;2.65;1.98;;;;;;;;;;4964620;28;20054;-67
2023/09/04 12:14:56;;;;;;;2.78;2.13;;;;;;;;;;4963773;28;20101;-65
2023/09/04 12:17:24;;;;;;;2.95;2.00;;;;;;;;;;4960789;28;20575;-65
2023/09/04 12:19:53;;;;;;;3.00;2.63;;;;;;;;;;4964171;28;20150;-64
2023/09/04 12:22:23;;;;;;;2.25;1.73;;;;;;;;;;4964029;28;20082;-63
2023/09/04 12:25:04;;;;;;;3.17;2.35;;;;;;;;;;4966245;28;20047;-64
2023/09/04 12:27:33;;;;;;;4.35;2.15;;;;;;;;;;4964746;28;20058;-65
2023/09/04 12:30:04;;;;;;;2.80;2.10;;;;;;;;;;4962075;28;20060;-64
2023/09/04 12:32:34;;;;;;;2.95;2.20;;;;;;;;;;4962041;28;20058;-70
2023/09/04 12:35:03;;;;;;;3.55;2.00;;;;;;;;;;4963666;28;20122;-64
2023/09/04 12:37:34;;;;;;;4.13;2.30;;;;;;;;;;4962581;28;20717;-65
2023/09/04 12:40:02;;;;;;;3.20;2.30;;;;;;;;;;4958935;28;20567;-64
2023/09/04 12:42:31;;;;;;;2.80;2.00;;;;;;;;;;4964065;28;20093;-65
2023/09/04 12:44:59;;;;;;;3.80;2.30;;;;;;;;;;4962192;28;20427;-65
2023/09/04 12:47:27;;;;;;;3.28;2.40;;;;;;;;;;4963345;28;20051;-65
2023/09/04 12:49:56;;;;;;;2.45;2.05;;;;;;;;;;4963535;28;20055;-66
2023/09/04 12:52:24;;;;;;;3.15;1.92;;;;;;;;;;4960575;28;20070;-66
2023/09/04 12:54:54;;;;;;;3.17;2.25;;;;;;;;;;4964261;28;20092;-68
2023/09/04 12:57:22;;;;;;;2.90;2.22;;;;;;;;;;4967184;28;20546;-66
2023/09/04 12:59:51;;;;;;;2.83;2.17;;;;;;;;;;4966737;28;20047;-70
2023/09/04 13:02:21;;;;;;;3.35;2.00;;;;;;;;;;4961193;28;20760;-71
2023/09/04 13:04:49;;;;;;;3.15;2.10;;;;;;;;;;4966052;28;20452;-66
2023/09/04 13:07:18;;;;;;;5.20;2.53;;;;;;;;;;4962219;28;20097;-67
2023/09/04 13:09:47;;;;;;;2.42;1.98;;;;;;;;;;4964620;28;20095;-66
2023/09/04 13:12:16;;;;;;;3.28;2.30;;;;;;;;;;4963891;28;20047;-64
2023/09/04 13:14:45;;;;;;;3.40;2.30;;;;;;;;;;4964617;28;20145;-70
2023/09/04 13:17:13;;;;;;;3.80;2.40;;;;;;;;;;4965287;28;20056;-65
2023/09/04 13:19:42;;;;;;;3.60;2.67;;;;;;;;;;4961748;28;20405;-65
2023/09/04 13:22:10;;;;;;;3.92;2.17;;;;;;;;;;4958093;28;20105;-64
2023/09/04 13:24:39;;;;;;;2.97;2.17;;;;;;;;;;4962265;28;20217;-64
2023/09/04 13:27:09;;;;;;;3.95;2.28;;;;;;;;;;4962186;28;20464;-66
2023/09/04 13:29:39;;;;;;;3.08;2.20;;;;;;;;;;4963865;28;20485;-66
2023/09/04 13:32:07;;;;;;;4.13;2.22;;;;;;;;;;4965373;28;20420;-63
2023/09/04 13:34:35;;;;;;;3.20;2.47;;;;;;;;;;4967338;28;20042;-68
2023/09/04 13:37:04;;;;;;;3.65;2.13;;;;;;;;;;4965620;28;20079;-64
2023/09/04 13:39:32;;;;;;;3.42;2.10;;;;;;;;;;4965246;28;20054;-67
2023/09/04 13:42:01;;;;;;;3.17;1.95;;;;;;;;;;4967459;28;20493;-68
2023/09/04 13:44:29;;;;;;;4.22;2.25;;;;;;;;;;4964691;28;20500;-64
2023/09/04 13:46:59;;;;;;;3.03;2.10;;;;;;;;;;4968943;28;20121;-66
2023/09/04 13:49:27;;;;;;;3.08;2.28;;;;;;;;;;4964442;28;20445;-63
2023/09/04 13:51:56;;;;;;;3.30;2.10;;;;;;;;;;4962703;28;20070;-64
2023/09/04 13:54:24;;;;;;;3.42;1.88;;;;;;;;;;4967046;28;20046;-66
2023/09/04 13:56:53;;;;;;;3.83;2.20;;;;;;;;;;4964702;28;20078;-66
2023/09/04 13:59:22;;;;;;;2.60;1.98;;;;;;;;;;4966192;28;20046;-72
2023/09/04 14:01:50;;;;;;;6.03;2.35;;;;;;;;;;4967438;28;20050;-64
2023/09/04 14:04:20;;;;;;;3.35;2.25;;;;;;;;;;4962544;28;20055;-64
2023/09/04 14:06:49;;;;;;;3.13;2.00;;;;;;;;;;4967221;28;20050;-68
2023/09/04 14:09:18;;;;;;;2.33;1.83;;;;;;;;;;4961971;28;20046;-64
2023/09/04 14:11:46;;;;;;;2.65;1.92;;;;;;;;;;4968094;28;20105;-64
2023/09/04 14:14:17;;;;;;;2.42;1.80;;;;;;;;;;4966847;28;20051;-66
2023/09/04 14:16:46;;;;;;;2.92;2.10;;;;;;;;;;4969687;28;20098;-67
2023/09/04 14:19:15;;;;;;;4.32;2.17;;;;;;;;;;4964332;28;20046;-64
2023/09/04 14:21:45;;;;;;;3.10;2.22;;;;;;;;;;4967071;28;20063;-64
2023/09/04 14:24:15;;;;;;;2.97;2.17;;;;;;;;;;4963076;28;20039;-72
2023/09/04 14:26:43;;;;;;;3.20;1.90;;;;;;;;;;4966692;28;20492;-67
2023/09/04 14:29:12;;;;;;;4.00;2.25;;;;;;;;;;4963336;28;20444;-68
2023/09/04 14:31:40;;;;;;;2.85;2.10;;;;;;;;;;4957123;28;20061;-68
2023/09/04 14:34:09;;;;;;;6.35;2.00;;;;;;;;;;4963686;28;20110;-64
2023/09/04 14:36:37;;;;;;;3.25;2.10;;;;;;;;;;4963310;28;20060;-66
2023/09/04 14:39:10;;;;;;;2.85;2.13;;;;;;;;;;4958836;28;20053;-70
2023/09/04 14:41:38;;;;;;;2.42;1.80;;;;;;;;;;4962764;28;20152;-72
2023/09/04 14:44:07;;;;;;;3.10;2.20;;;;;;;;;;4958273;28;20572;-71
2023/09/04 14:46:36;;;;;;;3.40;2.13;;;;;;;;;;4961719;28;20038;-64
2023/09/04 14:49:07;;;;;;;2.78;2.10;;;;;;;;;;4957927;28;20182;-68
2023/09/04 14:51:35;;;;;;;6.63;2.28;;;;;;;;;;4959184;28;20128;-65
2023/09/04 14:54:04;;;;;;;3.13;2.38;;;;;;;;;;4965021;28;20145;-66